Terminal Aerodrome Forecast
Issued by NWS Omaha/Valley, NE

Home | Current Version | Previous Version | Text Only | Print | Product List | Glossary On
Versions: 1 2 3 4 5 6 7 8 9 10 11 12 13 14 15 16 17 18 19 20 21 22 23 24 25 26 27
000
FTUS43 KOAX 191459 AAA
TAFOMA
TAF AMD
KOMA 191459Z 1915/2012 15012KT 6SM HZ OVC008
      TEMPO 1915/1916 P6SM NSW SCT010
     FM191600 15014KT P6SM SCT020
     FM191700 16018G28KT P6SM SCT120
     FM200300 16015G25KT P6SM SCT250 WS020/17045KT
     FM200900 27012KT P6SM SCT250=

USA.gov is the U.S. government's official web portal to all federal, state and local government web resources and services.